Time;durP1;ratioP1;P1;durP2;ratioP2;P2;SDS_P1;SDS_P2;PMS_P1;PMS_P2;Temp;Humidity;BMP_temperature;BMP_pressure;BME280_temperature;BME280_humidity;BME280_pressure;Samples;Min_cycle;Max_cycle;Signal;HPM_P1;HPM_P2
2022/03/26 00:01:45;;;;;;;;;54.75;42.75;;;;;18.39;30.64;102364.72;5104568;27;63199;-79
2022/03/26 00:04:11;;;;;;;;;51.00;39.25;;;;;18.35;30.66;102369.00;5105811;27;61856;-79
2022/03/26 00:06:38;;;;;;;;;58.75;39.50;;;;;18.31;30.75;102372.41;5087017;27;61935;-80
2022/03/26 00:09:04;;;;;;;;;49.25;38.75;;;;;18.31;30.85;102374.16;5104235;27;61862;-79
2022/03/26 00:11:30;;;;;;;;;55.50;40.50;;;;;18.30;30.87;102372.34;5086280;27;64131;-80
2022/03/26 00:13:55;;;;;;;;;53.00;39.50;;;;;18.28;31.09;102369.63;5087079;27;62101;-79
2022/03/26 00:16:21;;;;;;;;;52.75;39.75;;;;;18.27;30.95;102373.13;5104967;27;61822;-80
2022/03/26 00:18:46;;;;;;;;;57.75;42.00;;;;;18.24;30.88;102370.34;5105537;27;61946;-80
2022/03/26 00:21:13;;;;;;;;;56.50;41.50;;;;;18.21;31.07;102377.31;5104754;27;61923;-80
2022/03/26 00:23:39;;;;;;;;;55.25;43.00;;;;;18.15;31.32;102365.59;5103665;27;61958;-80
2022/03/26 00:26:04;;;;;;;;;54.00;40.75;;;;;18.14;31.35;102362.88;5105022;27;61929;-80
2022/03/26 00:28:30;;;;;;;;;51.25;38.75;;;;;18.13;31.40;102369.94;5087035;27;62081;-80
2022/03/26 00:30:56;;;;;;;;;51.00;39.50;;;;;18.12;30.99;102372.53;5085803;27;64820;-79
2022/03/26 00:33:22;;;;;;;;;65.00;45.00;;;;;18.07;31.15;102372.34;5105044;27;61941;-80
2022/03/26 00:35:47;;;;;;;;;56.50;42.50;;;;;18.05;31.13;102373.16;5105166;27;61830;-79
2022/03/26 00:38:13;;;;;;;;;59.00;42.00;;;;;18.04;31.36;102364.28;5103555;27;61820;-79
2022/03/26 00:40:40;;;;;;;;;39.50;37.25;;;;;18.02;31.30;102370.34;5104646;27;61887;-79
2022/03/26 00:43:06;;;;;;;;;59.75;44.25;;;;;17.99;31.78;102373.81;5105090;27;61843;-80
2022/03/26 00:45:34;;;;;;;;;54.25;39.75;;;;;17.96;31.72;102363.97;5103287;27;62054;-80
2022/03/26 00:48:00;;;;;;;;;60.75;43.00;;;;;17.94;31.93;102367.41;5103642;27;62150;-79
2022/03/26 00:50:26;;;;;;;;;58.00;45.75;;;;;17.91;31.81;102369.94;5104211;27;62737;-79
2022/03/26 00:52:51;;;;;;;;;60.25;46.50;;;;;17.91;31.66;102365.56;5103261;27;61996;-79
2022/03/26 00:55:17;;;;;;;;;59.50;45.00;;;;;17.86;31.89;102367.09;5104757;27;61677;-80
2022/03/26 00:57:43;;;;;;;;;57.00;45.00;;;;;17.86;32.11;102358.22;5104090;27;61993;-80
2022/03/26 01:00:10;;;;;;;;;33.75;23.50;;;;;17.83;32.02;102363.44;5103977;27;62009;-80
2022/03/26 01:02:36;;;;;;;;;60.00;42.25;;;;;17.78;32.16;102366.78;5102842;27;62040;-79
2022/03/26 01:05:02;;;;;;;;;62.00;43.00;;;;;17.82;31.90;102358.91;5104716;27;61786;-80
2022/03/26 01:07:28;;;;;;;;;51.75;41.00;;;;;17.77;31.92;102362.28;5102956;27;61950;-80
2022/03/26 01:09:54;;;;;;;;;56.75;42.25;;;;;17.71;32.13;102358.47;5102689;27;65133;-80
2022/03/26 01:12:20;;;;;;;;;54.50;42.50;;;;;17.68;32.01;102361.03;5104153;27;61904;-79
2022/03/26 01:14:49;;;;;;;;;55.25;41.00;;;;;17.65;32.22;102359.16;5085671;27;62147;-79
2022/03/26 01:17:15;;;;;;;;;61.00;41.50;;;;;17.65;32.05;102364.47;5104444;27;62075;-79
2022/03/26 01:19:41;;;;;;;;;54.75;38.75;;;;;17.69;32.20;102362.81;5103761;27;62883;-79
2022/03/26 01:22:06;;;;;;;;;50.75;39.25;;;;;17.63;32.27;102360.84;5085659;27;62018;-79
2022/03/26 01:24:32;;;;;;;;;53.50;38.75;;;;;17.58;32.42;102359.72;5104195;27;62138;-79
2022/03/26 01:26:57;;;;;;;;;53.00;43.00;;;;;17.53;32.24;102361.31;5102309;27;62017;-79
2022/03/26 01:29:23;;;;;;;;;54.50;40.75;;;;;17.51;32.64;102363.00;5085110;27;64117;-79
2022/03/26 01:31:49;;;;;;;;;48.25;38.25;;;;;17.48;32.59;102355.81;5104293;27;62030;-79
2022/03/26 01:34:15;;;;;;;;;55.00;42.00;;;;;17.46;32.54;102351.25;5085631;27;62009;-79
2022/03/26 01:36:41;;;;;;;;;48.75;38.25;;;;;17.44;32.28;102355.59;5104209;27;61778;-79
2022/03/26 01:39:07;;;;;;;;;66.00;45.00;;;;;17.43;32.65;102356.47;5084792;27;63840;-79
2022/03/26 01:41:33;;;;;;;;;57.75;40.75;;;;;17.40;32.82;102354.59;5103773;27;61703;-79
2022/03/26 01:43:59;;;;;;;;;60.50;45.25;;;;;17.37;32.82;102354.44;5104008;27;61715;-79
2022/03/26 01:46:25;;;;;;;;;52.75;39.00;;;;;17.34;32.90;102349.91;5104222;27;62081;-79
2022/03/26 01:48:51;;;;;;;;;58.25;44.50;;;;;17.31;33.05;102348.88;5101737;27;63589;-79
2022/03/26 01:51:17;;;;;;;;;62.75;46.50;;;;;17.27;33.05;102347.84;5085749;27;61978;-80
2022/03/26 01:53:51;;;;;;;;;56.50;48.25;;;;;17.24;32.79;102350.38;5102344;27;62035;-80
2022/03/26 01:56:19;;;;;;;;;56.75;42.00;;;;;17.22;32.93;102344.09;5084863;27;62024;-79
2022/03/26 01:58:45;;;;;;;;;61.25;43.00;;;;;17.19;33.27;102340.41;5101462;27;63785;-79
2022/03/26 02:01:11;;;;;;;;;58.25;43.00;;;;;17.16;33.05;102338.53;5103783;27;61858;-79
2022/03/26 02:03:37;;;;;;;;;55.25;40.25;;;;;17.16;33.15;102338.53;5085343;27;61979;-80
2022/03/26 02:06:03;;;;;;;;;56.00;43.75;;;;;17.14;33.33;102330.50;5103850;27;61708;-79
2022/03/26 02:08:29;;;;;;;;;52.25;41.00;;;;;17.13;33.24;102338.41;5102448;27;63273;-79
2022/03/26 02:10:54;;;;;;;;;63.75;47.75;;;;;17.10;33.52;102331.22;5103169;27;61741;-79
2022/03/26 02:13:21;;;;;;;;;60.75;43.00;;;;;17.05;33.22;102324.81;5085166;27;61957;-79
2022/03/26 02:15:46;;;;;;;;;58.75;38.75;;;;;17.06;33.27;102336.34;5102659;27;62301;-80
2022/03/26 02:18:12;;;;;;;;;57.50;44.00;;;;;17.05;33.50;102331.84;5084452;27;63963;-80
2022/03/26 02:20:39;;;;;;;;;59.25;45.75;;;;;17.02;33.49;102327.31;5085168;27;61901;-79
2022/03/26 02:23:04;;;;;;;;;48.75;39.25;;;;;16.99;33.40;102328.94;5101408;27;61945;-79
2022/03/26 02:25:30;;;;;;;;;56.75;39.25;;;;;16.99;33.72;102332.53;5101812;27;61939;-79
2022/03/26 02:27:55;;;;;;;;;52.00;42.25;;;;;16.96;33.46;102330.59;5102503;27;62423;-79
2022/03/26 02:30:21;;;;;;;;;48.25;41.00;;;;;16.91;33.60;102334.81;5084655;27;61985;-79
2022/03/26 02:32:47;;;;;;;;;55.00;41.00;;;;;16.90;33.92;102332.09;5103347;27;61910;-80
2022/03/26 02:35:13;;;;;;;;;62.50;43.25;;;;;16.85;34.03;102329.25;5103572;27;62140;-80
2022/03/26 02:37:38;;;;;;;;;57.00;42.00;;;;;16.83;33.98;102325.63;5102317;27;62104;-80
2022/03/26 02:40:07;;;;;;;;;55.25;40.00;;;;;16.80;33.86;102325.50;5102869;27;61672;-80
2022/03/26 02:42:33;;;;;;;;;59.00;40.75;;;;;16.79;34.03;102325.41;5103514;27;61860;-80
2022/03/26 02:44:59;;;;;;;;;52.50;40.00;;;;;16.75;34.00;102327.00;5102894;27;61850;-79
2022/03/26 02:47:25;;;;;;;;;53.00;41.75;;;;;16.73;34.21;102329.59;5102658;27;63139;-80
2022/03/26 02:49:50;;;;;;;;;54.50;43.25;;;;;16.72;34.06;102321.56;5102934;27;62020;-80
2022/03/26 02:52:16;;;;;;;;;62.75;46.00;;;;;16.68;33.97;102323.16;5102936;27;61746;-80
2022/03/26 02:54:43;;;;;;;;;50.75;40.50;;;;;16.66;34.12;102321.28;5101404;27;61790;-80
2022/03/26 02:57:08;;;;;;;;;54.00;39.50;;;;;16.64;33.91;102331.81;5102151;27;61886;-80
2022/03/26 02:59:34;;;;;;;;;57.25;43.50;;;;;16.59;34.01;102328.06;5104220;27;61754;-79
2022/03/26 03:01:59;;;;;;;;;51.75;41.25;;;;;16.56;34.27;102325.31;5084787;27;61785;-79
2022/03/26 03:04:25;;;;;;;;;56.00;40.25;;;;;16.53;34.32;102328.69;5101867;27;62073;-79
2022/03/26 03:06:51;;;;;;;;;55.50;39.00;;;;;16.51;34.39;102317.13;5083759;27;65090;-79
2022/03/26 03:09:17;;;;;;;;;49.50;43.25;;;;;16.57;34.14;102319.16;5100728;27;61689;-79
2022/03/26 03:11:44;;;;;;;;;64.25;45.50;;;;;16.51;34.23;102317.13;5101539;27;61860;-79
2022/03/26 03:14:10;;;;;;;;;62.50;46.25;;;;;16.49;34.50;102324.09;5102919;27;61824;-80
2022/03/26 03:16:37;;;;;;;;;53.75;43.00;;;;;16.49;34.23;102324.09;5100725;27;64724;-79
2022/03/26 03:19:04;;;;;;;;;59.75;44.00;;;;;16.43;34.46;102320.25;5102672;27;61937;-79
2022/03/26 03:21:29;;;;;;;;;55.00;42.50;;;;;16.38;34.51;102321.81;5102859;27;61712;-79
2022/03/26 03:23:55;;;;;;;;;48.50;35.00;;;;;16.34;34.78;102324.31;5083830;27;62411;-79
2022/03/26 03:26:20;;;;;;;;;56.00;41.50;;;;;16.33;34.50;102327.81;5102528;27;64908;-79
2022/03/26 03:28:46;;;;;;;;;55.00;41.25;;;;;16.32;34.86;102319.78;5087673;27;61966;-79
2022/03/26 03:31:11;;;;;;;;;59.50;44.50;;;;;16.33;34.66;102324.25;5106322;27;61867;-79
2022/03/26 03:33:37;;;;;;;;;64.75;50.50;;;;;16.32;34.87;102322.44;5087937;27;61961;-79
2022/03/26 03:36:04;;;;;;;;;56.00;40.25;;;;;16.27;34.62;102318.66;5105579;27;62927;-79
2022/03/26 03:38:30;;;;;;;;;64.25;47.25;;;;;16.29;34.60;102332.91;5105246;27;61920;-80
2022/03/26 03:40:55;;;;;;;;;64.50;44.00;;;;;16.26;34.83;102323.06;5087437;27;62012;-79
2022/03/26 03:43:21;;;;;;;;;55.75;43.50;;;;;16.26;35.00;102327.44;5088073;27;61966;-80
2022/03/26 03:45:46;;;;;;;;;54.75;43.00;;;;;16.23;35.08;102330.88;5105290;27;63510;-80
2022/03/26 03:48:12;;;;;;;;;56.00;41.25;;;;;16.21;34.74;102321.03;5105780;27;61841;-80
2022/03/26 03:50:37;;;;;;;;;63.75;45.75;;;;;16.23;35.13;102329.97;5104492;27;61781;-79
2022/03/26 03:53:03;;;;;;;;;57.50;40.50;;;;;16.20;35.16;102333.38;5105430;27;61898;-80
2022/03/26 03:55:29;;;;;;;;;64.25;44.00;;;;;16.20;35.33;102328.09;5105064;27;63046;-80
2022/03/26 03:57:54;;;;;;;;;61.00;47.00;;;;;16.14;35.48;102331.34;5105370;27;61772;-80
2022/03/26 04:00:20;;;;;;;;;61.75;46.25;;;;;16.12;35.53;102342.72;5105817;27;61908;-79
2022/03/26 04:02:46;;;;;;;;;57.50;40.75;;;;;16.10;35.26;102344.38;5106107;27;62179;-79
2022/03/26 04:05:13;;;;;;;;;62.50;49.25;;;;;16.09;35.03;102337.28;5104772;27;61795;-79
2022/03/26 04:07:42;;;;;;;;;54.00;42.50;;;;;16.08;35.30;102339.00;5103399;27;61971;-79
2022/03/26 04:10:09;;;;;;;;;65.75;43.75;;;;;16.07;35.39;102346.91;5087137;27;61951;-79
2022/03/26 04:12:40;;;;;;;;;60.50;44.00;;;;;16.04;35.53;102339.69;5105844;27;61898;-79
2022/03/26 04:15:07;;;;;;;;;58.25;49.00;;;;;16.03;35.60;102345.84;5104450;27;61944;-79
2022/03/26 04:17:32;;;;;;;;;63.50;46.00;;;;;16.02;35.25;102348.41;5087034;27;61973;-79
2022/03/26 04:19:59;;;;;;;;;60.50;47.25;;;;;16.00;35.25;102342.13;5105485;27;62024;-80
2022/03/26 04:22:24;;;;;;;;;63.00;45.50;;;;;15.97;35.55;102342.00;5104856;27;61701;-79
2022/03/26 04:24:50;;;;;;;;;54.00;45.50;;;;;15.95;35.86;102349.88;5086404;27;63453;-79
2022/03/26 04:27:15;;;;;;;;;58.00;45.50;;;;;15.93;35.90;102349.78;5104910;27;61825;-79
2022/03/26 04:29:41;;;;;;;;;62.75;47.50;;;;;15.93;36.01;102348.88;5104999;27;61679;-79
2022/03/26 04:32:07;;;;;;;;;59.00;46.50;;;;;15.90;35.78;102348.75;5087037;27;61747;-79
2022/03/26 04:34:32;;;;;;;;;67.00;48.50;;;;;15.86;36.34;102352.97;5086291;27;63576;-79
2022/03/26 04:36:58;;;;;;;;;60.75;44.75;;;;;15.84;35.89;102345.81;5084998;27;62020;-79
2022/03/26 04:39:23;;;;;;;;;54.25;40.75;;;;;15.81;36.12;102343.00;5103797;27;61843;-79
2022/03/26 04:41:49;;;;;;;;;63.75;49.25;;;;;15.77;36.08;102343.66;5105078;27;62066;-79
2022/03/26 04:44:15;;;;;;;;;61.00;44.75;;;;;15.76;36.19;102347.16;5103028;27;63847;-79
2022/03/26 04:46:40;;;;;;;;;61.75;46.50;;;;;15.73;36.15;102347.94;5105197;27;61813;-80
2022/03/26 04:49:06;;;;;;;;;59.50;40.50;;;;;15.71;35.80;102342.56;5103536;27;62085;-80
2022/03/26 04:51:32;;;;;;;;;57.25;44.50;;;;;15.69;36.28;102346.84;5085620;27;61785;-80
2022/03/26 04:53:58;;;;;;;;;60.75;46.75;;;;;15.66;36.07;102340.47;5085448;27;63309;-80
2022/03/26 04:56:24;;;;;;;;;66.00;43.75;;;;;15.66;36.07;102348.41;5104569;27;61703;-80
2022/03/26 04:58:49;;;;;;;;;61.50;47.75;;;;;15.63;36.42;102345.63;5086485;27;61876;-80
2022/03/26 05:01:15;;;;;;;;;59.00;43.75;;;;;15.58;36.49;102349.81;5103538;27;62158;-80
2022/03/26 05:03:42;;;;;;;;;58.25;43.50;;;;;15.54;36.86;102349.63;5104320;27;61732;-79
2022/03/26 05:06:07;;;;;;;;;61.00;46.50;;;;;15.53;36.53;102352.19;5086027;27;61791;-79
2022/03/26 05:08:33;;;;;;;;;56.00;40.75;;;;;15.51;36.45;102345.91;5102761;27;61936;-79
2022/03/26 05:10:59;;;;;;;;;60.00;45.50;;;;;15.46;36.60;102343.06;5103400;27;62033;-79
2022/03/26 05:13:24;;;;;;;;;63.00;47.00;;;;;15.45;36.47;102350.94;5102583;27;64989;-79
2022/03/26 05:15:50;;;;;;;;;56.00;43.00;;;;;15.44;36.62;102357.94;5104239;27;61866;-79
2022/03/26 05:18:17;;;;;;;;;63.00;48.50;;;;;15.41;36.84;102357.81;5103297;27;61830;-79
2022/03/26 05:20:43;;;;;;;;;63.50;46.00;;;;;15.39;36.97;102350.63;5086111;27;61827;-79
2022/03/26 05:23:08;;;;;;;;;65.25;46.75;;;;;15.36;37.12;102358.41;5085255;27;64858;-79
2022/03/26 05:25:34;;;;;;;;;62.25;45.50;;;;;15.33;37.22;102357.41;5085624;27;61958;-79
2022/03/26 05:28:00;;;;;;;;;69.25;45.00;;;;;15.31;37.48;102353.78;5085633;27;61743;-79
2022/03/26 05:30:25;;;;;;;;;64.75;45.25;;;;;15.31;37.34;102360.81;5104349;27;61804;-79
2022/03/26 05:32:51;;;;;;;;;50.00;40.00;;;;;15.30;37.16;102370.50;5102485;27;63522;-79
2022/03/26 05:35:16;;;;;;;;;60.25;44.50;;;;;15.27;37.55;102378.25;5103720;27;61906;-79
2022/03/26 05:37:47;;;;;;;;;62.25;46.00;;;;;15.26;37.81;102376.47;5102418;27;61802;-80
2022/03/26 05:40:18;;;;;;;;;56.50;44.00;;;;;15.22;37.76;102371.84;5104179;27;61906;-79
2022/03/26 05:42:44;;;;;;;;;61.75;42.75;;;;;15.24;38.10;102371.94;5103619;27;61916;-79
2022/03/26 05:45:11;;;;;;;;;60.00;43.00;;;;;15.19;37.77;102378.72;5104057;27;61781;-81
2022/03/26 05:47:40;;;;;;;;;62.00;43.00;;;;;15.19;38.31;102373.41;5102876;27;61982;-81
2022/03/26 05:50:08;;;;;;;;;64.75;48.50;;;;;15.18;38.27;102382.19;5085717;27;62466;-81
2022/03/26 05:52:34;;;;;;;;;65.00;50.50;;;;;15.16;38.18;102383.84;5084690;27;64920;-82
2022/03/26 05:54:59;;;;;;;;;62.25;45.50;;;;;15.18;38.36;102382.19;5104018;27;61904;-80
2022/03/26 05:57:25;;;;;;;;;59.25;45.25;;;;;15.16;38.46;102375.91;5102173;27;62017;-79
2022/03/26 05:59:50;;;;;;;;;59.00;45.25;;;;;15.16;38.25;102379.47;5102455;27;61814;-80
2022/03/26 06:02:16;;;;;;;;;60.00;46.50;;;;;15.17;38.33;102377.72;5102524;27;63279;-79
2022/03/26 06:04:43;;;;;;;;;65.00;44.50;;;;;15.18;37.90;102379.56;5102581;27;61964;-79
2022/03/26 06:07:09;;;;;;;;;65.00;47.25;;;;;15.20;38.15;102381.44;5085215;27;62024;-79
2022/03/26 06:09:36;;;;;;;;;60.00;47.25;;;;;15.21;38.30;102382.34;5102500;27;62195;-79
2022/03/26 06:12:02;;;;;;;;;55.50;45.00;;;;;15.17;38.44;102383.94;5103150;27;61852;-79
2022/03/26 06:14:28;;;;;;;;;73.00;49.75;;;;;15.19;38.33;102382.28;5103087;27;61854;-79
2022/03/26 06:16:55;;;;;;;;;63.00;52.00;;;;;15.18;38.23;102385.75;5101536;27;62043;-79
2022/03/26 06:19:31;;;;;;;;;72.00;49.00;;;;;15.23;37.59;102400.13;5102118;27;62222;-79
2022/03/26 06:21:57;;;;;;;;;72.25;53.00;;;;;15.27;38.23;102403.81;5084179;27;63300;-79
2022/03/26 06:24:22;;;;;;;;;63.75;48.75;;;;;15.28;38.33;102410.94;5084821;27;61860;-79
2022/03/26 06:26:48;;;;;;;;;64.00;48.00;;;;;15.26;38.50;102410.84;5102965;27;61834;-79
2022/03/26 06:29:15;;;;;;;;;68.33;54.00;;;;;15.26;38.53;102410.84;5103486;27;62104;-79
2022/03/26 06:31:42;;;;;;;;;66.00;49.50;;;;;15.18;38.94;102416.59;5102254;27;61980;-80
2022/03/26 06:34:07;;;;;;;;;64.50;51.00;;;;;15.17;38.88;102414.75;5103291;27;61813;-79
2022/03/26 06:36:36;;;;;;;;;67.50;52.25;;;;;15.20;39.13;102421.13;5102049;27;62117;-79
2022/03/26 06:39:03;;;;;;;;;63.25;49.00;;;;;15.25;38.87;102419.63;5102863;27;61848;-79
2022/03/26 06:41:29;;;;;;;;;73.50;53.50;;;;;15.30;38.65;102417.22;5084218;27;64848;-81
2022/03/26 06:43:54;;;;;;;;;65.75;49.50;;;;;15.32;39.06;102421.75;5103087;27;61637;-81
2022/03/26 06:46:20;;;;;;;;;72.00;49.25;;;;;15.38;38.75;102421.19;5102850;27;61830;-81
2022/03/26 06:48:45;;;;;;;;;60.25;45.25;;;;;15.44;38.53;102423.22;5103601;27;61786;-81
2022/03/26 06:51:11;;;;;;;;;66.00;49.50;;;;;15.48;38.83;102430.47;5102465;27;62510;-81
2022/03/26 06:53:36;;;;;;;;;65.75;46.00;;;;;15.66;38.46;102428.75;5084409;27;62223;-81
2022/03/26 06:56:05;;;;;;;;;63.25;50.25;;;;;15.90;38.03;102437.03;5101446;27;61840;-81
2022/03/26 06:58:31;;;;;;;;;66.00;47.75;;;;;16.24;37.32;102436.03;5103134;27;62009;-79
2022/03/26 07:00:58;;;;;;;;;67.50;51.75;;;;;16.56;37.29;102437.53;5103391;27;61966;-79
2022/03/26 07:03:24;;;;;;;;;62.00;46.75;;;;;16.62;36.92;102431.59;5088191;27;61927;-79
2022/03/26 07:05:50;;;;;;;;;72.00;51.75;;;;;16.72;36.97;102438.25;5106516;27;62106;-79
2022/03/26 07:08:15;;;;;;;;;66.25;48.50;;;;;16.89;36.49;102436.41;5088052;27;61758;-79
2022/03/26 07:10:44;;;;;;;;;68.75;51.75;;;;;17.21;36.21;102443.13;5105174;27;63067;-79
2022/03/26 07:13:13;;;;;;;;;69.25;50.50;;;;;17.58;35.96;102439.41;5087657;27;61838;-79
2022/03/26 07:15:39;;;;;;;;;63.00;47.00;;;;;17.67;35.21;102442.44;5084014;28;62157;-79
2022/03/26 07:18:05;;;;;;;;;69.50;51.25;;;;;17.88;34.92;102445.09;5083373;28;62126;-79
2022/03/26 07:20:31;;;;;;;;;72.50;49.75;;;;;18.09;34.21;102444.19;5082582;28;63148;-78
2022/03/26 07:22:56;;;;;;;;;68.25;52.75;;;;;18.09;34.10;102454.81;5085991;27;61773;-78
2022/03/26 07:25:22;;;;;;;;;64.00;49.00;;;;;18.24;34.07;102455.41;5067740;28;61998;-76
2022/03/26 07:27:47;;;;;;;;;75.50;53.00;;;;;18.59;33.27;102451.50;5067132;28;61781;-78
2022/03/26 07:30:13;;;;;;;;;70.00;52.00;;;;;18.93;33.08;102450.09;5076592;28;61838;-78
2022/03/26 07:32:38;;;;;;;;;68.50;49.25;;;;;19.27;32.61;102442.44;5084579;28;61995;-79
2022/03/26 07:35:04;;;;;;;;;61.00;48.00;;;;;19.55;31.58;102457.63;5066774;28;62128;-80
2022/03/26 07:37:30;;;;;;;;;60.25;46.25;;;;;19.93;31.29;102458.94;5085053;28;62082;-81
2022/03/26 07:39:55;;;;;;;;;60.00;44.75;;;;;20.19;30.45;102457.09;5081480;28;62848;-76
2022/03/26 07:42:21;;;;;;;;;64.50;46.75;;;;;20.09;29.58;102446.09;5066522;28;62217;-78
2022/03/26 07:44:46;;;;;;;;;65.25;43.25;;;;;19.88;29.65;102452.56;5065966;28;61997;-79
2022/03/26 07:47:11;;;;;;;;;62.50;47.50;;;;;19.64;30.33;102454.34;5066434;28;61878;-77
2022/03/26 07:49:37;;;;;;;;;55.75;43.25;;;;;19.38;30.28;102447.28;5083818;28;62917;-77
2022/03/26 07:52:03;;;;;;;;;63.50;46.00;;;;;19.33;30.81;102462.19;5084721;28;61855;-77
2022/03/26 07:54:29;;;;;;;;;54.50;44.25;;;;;19.25;30.67;102465.44;5084954;28;61746;-79
2022/03/26 07:56:55;;;;;;;;;57.50;45.00;;;;;19.20;31.13;102455.53;5085357;28;62315;-77
2022/03/26 07:59:20;;;;;;;;;68.00;52.00;;;;;19.15;30.68;102454.47;5065730;28;63722;-76
2022/03/26 08:01:46;;;;;;;;;62.00;46.00;;;;;19.14;30.77;102457.97;5085288;28;61854;-76
2022/03/26 08:04:12;;;;;;;;;71.50;51.00;;;;;19.10;30.74;102456.03;5075624;27;62247;-76
2022/03/26 08:06:38;;;;;;;;;68.25;46.25;;;;;19.10;30.77;102457.81;5068262;28;61770;-76
2022/03/26 08:09:03;;;;;;;;;60.25;48.50;;;;;19.15;31.06;102464.19;5064291;28;63365;-76
2022/03/26 08:11:29;;;;;;;;;66.25;48.00;;;;;19.18;31.10;102469.66;5056653;28;62319;-76
2022/03/26 08:13:54;;;;;;;;;58.00;43.00;;;;;19.20;31.11;102471.50;5061720;28;62111;-77
2022/03/26 08:16:20;;;;;;;;;61.50;46.25;;;;;19.20;30.40;102471.50;5084446;28;62151;-83
2022/03/26 08:18:46;;;;;;;;;54.00;44.50;;;;;19.19;30.10;102468.78;5083548;28;61968;-82
2022/03/26 08:21:12;;;;;;;;;63.75;47.00;;;;;19.23;30.80;102465.38;5083007;28;62236;-81
2022/03/26 08:23:38;;;;;;;;;62.00;47.50;;;;;19.23;30.28;102467.16;5083226;27;61899;-83
2022/03/26 08:26:23;;;;;;;;;66.25;42.50;;;;;19.23;30.17;102473.38;5083647;28;61745;-80
2022/03/26 08:28:53;;;;;;;;;51.25;42.75;;;;;19.27;30.45;102467.31;5083610;28;61846;-75
2022/03/26 08:31:20;;;;;;;;;60.50;44.00;;;;;19.29;31.12;102467.38;5084064;28;61930;-78
2022/03/26 08:33:46;;;;;;;;;60.75;46.00;;;;;19.28;30.06;102473.53;5066123;28;61966;-78
2022/03/26 08:36:15;;;;;;;;;64.75;43.50;;;;;19.27;30.23;102467.31;5084895;28;62133;-79
2022/03/26 08:38:48;;;;;;;;;50.75;39.25;;;;;19.31;30.03;102471.00;5083802;28;62156;-79
2022/03/26 08:41:15;;;;;;;;;61.75;46.00;;;;;19.26;29.81;102465.50;5084209;28;62120;-78
2022/03/26 08:43:41;;;;;;;;;59.00;45.50;;;;;19.24;30.06;102467.22;5080082;27;62427;-78
2022/03/26 08:46:06;;;;;;;;;54.00;43.00;;;;;19.30;30.38;102472.75;5064716;28;61749;-78
2022/03/26 08:48:32;;;;;;;;;49.25;39.00;;;;;19.37;30.58;102466.78;5063414;28;63245;-78
2022/03/26 08:50:57;;;;;;;;;60.00;40.25;;;;;19.41;29.96;102462.47;5083021;28;61920;-78
2022/03/26 08:53:23;;;;;;;;;58.25;40.25;;;;;19.34;29.50;102474.66;5082737;28;61705;-78
2022/03/26 08:55:49;;;;;;;;;49.50;40.75;;;;;19.38;29.46;102465.03;5083171;27;61859;-79
2022/03/26 08:58:17;;;;;;;;;55.00;40.25;;;;;19.44;29.40;102467.91;5081788;28;61974;-79
2022/03/26 09:00:43;;;;;;;;;42.00;35.00;;;;;19.48;29.60;102469.81;5079749;28;62207;-78
2022/03/26 09:03:09;;;;;;;;;58.25;38.75;;;;;19.57;29.82;102467.47;5079934;28;61818;-78
2022/03/26 09:05:34;;;;;;;;;55.50;41.00;;;;;19.64;29.02;102470.34;5061604;28;61744;-78
2022/03/26 09:08:00;;;;;;;;;45.50;38.75;;;;;19.69;29.07;102464.34;5060729;28;64647;-78
2022/03/26 09:10:25;;;;;;;;;50.00;38.75;;;;;19.73;28.94;102463.63;5082748;28;62117;-78
2022/03/26 09:12:51;;;;;;;;;41.00;35.50;;;;;19.76;28.64;102466.38;5063789;28;61903;-78
2022/03/26 09:15:16;;;;;;;;;51.50;38.25;;;;;19.82;29.08;102463.03;5082576;28;62204;-79
2022/03/26 09:17:42;;;;;;;;;52.00;38.50;;;;;19.93;28.98;102463.38;5082092;28;63012;-79
2022/03/26 09:20:09;;;;;;;;;50.50;37.25;;;;;19.99;29.21;102461.81;5082839;28;61942;-80
2022/03/26 09:22:35;;;;;;;;;45.75;38.00;;;;;20.06;28.69;102468.25;5063558;28;62192;-78
2022/03/26 09:25:02;;;;;;;;;51.00;38.75;;;;;20.09;28.31;102460.34;5082563;27;62183;-79
2022/03/26 09:27:28;;;;;;;;;46.75;38.50;;;;;20.15;28.73;102459.63;5080130;28;62208;-79
2022/03/26 09:29:54;;;;;;;;;52.50;39.25;;;;;20.21;28.99;102459.84;5081696;28;61867;-79
2022/03/26 09:32:19;;;;;;;;;53.00;37.75;;;;;20.26;28.52;102457.31;5081343;28;61950;-79
2022/03/26 09:34:45;;;;;;;;;56.50;37.75;;;;;20.30;28.54;102457.44;5082597;28;61879;-79
2022/03/26 09:37:12;;;;;;;;;38.25;30.00;;;;;20.36;28.01;102459.41;5082220;27;63189;-79
2022/03/26 09:39:38;;;;;;;;;55.25;42.50;;;;;20.33;27.91;102460.22;5081495;28;62227;-78
2022/03/26 09:42:04;;;;;;;;;51.25;36.50;;;;;20.39;28.19;102457.75;5062329;28;62212;-78
2022/03/26 09:44:32;;;;;;;;;53.25;41.00;;;;;20.50;28.55;102466.09;5074088;27;61851;-78
2022/03/26 09:46:57;;;;;;;;;63.75;41.00;;;;;20.57;28.03;102460.09;5062284;28;64209;-78
2022/03/26 09:49:23;;;;;;;;;42.50;34.25;;;;;20.62;27.97;102454.91;5063053;28;62288;-78
2022/03/26 09:51:54;;;;;;;;;49.50;37.00;;;;;20.68;27.92;102463.09;5079423;28;62148;-78
2022/03/26 09:54:21;;;;;;;;;47.25;36.25;;;;;20.69;28.19;102455.97;5062238;28;62117;-78
2022/03/26 09:56:46;;;;;;;;;50.50;38.25;;;;;20.75;27.80;102454.38;5079850;28;64083;-79
2022/03/26 09:59:12;;;;;;;;;55.50;40.50;;;;;20.87;28.07;102452.97;5061554;28;62022;-78
2022/03/26 10:01:37;;;;;;;;;54.50;40.00;;;;;20.92;28.04;102448.66;5081762;28;61833;-78
2022/03/26 10:04:10;;;;;;;;;49.50;40.50;;;;;21.00;27.97;102453.34;5082487;28;62120;-78
2022/03/26 10:06:35;;;;;;;;;55.25;41.00;;;;;21.04;27.83;102452.56;5077979;27;63288;-78
2022/03/26 10:09:02;;;;;;;;;53.75;39.00;;;;;21.12;28.29;102452.75;5063049;28;61968;-78
2022/03/26 10:11:32;;;;;;;;;54.75;40.25;;;;;21.21;27.61;102444.13;5081863;28;61892;-80
2022/03/26 10:13:58;;;;;;;;;59.75;44.00;;;;;21.25;27.76;102448.66;5064254;28;61747;-80
2022/03/26 10:16:24;;;;;;;;;47.75;40.50;;;;;21.34;27.71;102432.91;5081960;28;62840;-80
2022/03/26 10:18:50;;;;;;;;;55.75;38.50;;;;;21.46;28.10;102437.69;5064865;28;61781;-81
2022/03/26 10:21:20;;;;;;;;;53.00;36.75;;;;;21.57;27.31;102432.59;5082120;28;61939;-81
2022/03/26 10:23:52;;;;;;;;;56.75;39.75;;;;;21.62;26.93;102436.31;5078530;28;61862;-81
2022/03/26 10:26:22;;;;;;;;;50.25;31.00;;;;;21.68;26.67;102440.91;5079095;28;61972;-81
2022/03/26 10:28:58;;;;;;;;;48.75;38.00;;;;;21.75;26.78;102438.44;5059131;28;61952;-80
2022/03/26 10:34:21;;;;;;;;;55.50;40.50;;;;;21.93;25.67;102432.63;5081409;28;61951;-80
2022/03/26 10:36:53;;;;;;;;;62.75;45.75;;;;;22.00;25.10;102433.66;5079544;28;62121;-81
2022/03/26 10:39:30;;;;;;;;;48.00;35.50;;;;;22.16;26.48;102430.50;5078971;28;61826;-81
2022/03/26 10:41:56;;;;;;;;;56.75;39.75;;;;;22.31;26.36;102431.75;5081952;28;62142;-80
2022/03/26 10:44:28;;;;;;;;;42.50;38.50;;;;;22.42;26.18;102423.06;5063715;28;61832;-79
2022/03/26 10:46:58;;;;;;;;;47.00;35.25;;;;;22.53;25.50;102417.06;5080463;28;62924;-80
2022/03/26 10:49:29;;;;;;;;;46.75;36.75;;;;;22.67;25.72;102419.16;5060715;28;61931;-81
2022/03/26 10:51:56;;;;;;;;;55.50;42.50;;;;;22.79;24.83;102421.16;5080738;28;62030;-78
2022/03/26 10:54:32;;;;;;;;;56.75;40.50;;;;;22.90;24.70;102418.72;5080033;28;62160;-79
2022/03/26 10:56:59;;;;;;;;;64.00;47.50;;;;;22.89;23.88;102414.22;5079116;28;62140;-78
2022/03/26 10:59:27;;;;;;;;;53.50;36.25;;;;;23.05;24.68;102413.69;5078651;28;62097;-79
2022/03/26 11:01:52;;;;;;;;;51.25;39.00;;;;;23.20;24.04;102405.03;5080947;28;61811;-79
2022/03/26 11:04:18;;;;;;;;;54.50;41.75;;;;;23.33;24.40;102402.56;5061820;28;62241;-79
2022/03/26 11:06:44;;;;;;;;;52.50;38.50;;;;;23.48;24.62;102405.53;5087819;27;63779;-76
2022/03/26 11:09:10;;;;;;;;;56.00;40.00;;;;;23.61;24.03;102395.91;5079947;27;61974;-76